Terminal Aerodrome Forecast
Issued by NWS Wilmington, OH

Current Version | Previous Version | Graphics & Text | Print | Product List | Glossary On
Versions: 1 2 3 4 5 6 7 8 9 10 11 12 13 14 15 16 17 18 19 20 21 22 23
218
FTUS41 KILN 101310 AAA
TAFCVG
TAF AMD
KCVG 101310Z 1013/1118 27012G18KT 6SM -SHSN OVC035
      TEMPO 1013/1016 4SM -SHSN OVC025
     FM101700 28014G20KT P6SM -SHSN OVC035
     FM110000 28008KT P6SM BKN035
     FM110900 29006KT P6SM SCT035=

USA.gov is the U.S. government's official web portal to all federal, state and local government web resources and services.